AFL527 UUEE-ULLI
Flight info
| Callsign | AFL527 |
|---|---|
| Flight time | 1h 4m |
| Altitude | 36000 |
| Route | TOKNU L4 NUDKO T561 ODATI T875 GENPA |
| Aircraft | A333/H-SDE3GHIJ2J3J5M1RVWXY/LB2D1 |
Departure
| Time | 2026-05-06 13:29 |
|---|---|
| Airport | Sheremetyevo International Airport (UUEE) |
Arrival
| Time | 2026-05-06 14:33 |
|---|---|
| Airport | Pulkovo Airport (ULLI) |
| Time | Latitude | Longitude | Altitude | Speed | Heading |
|---|---|---|---|---|---|
| 2026-05-06 13:00 | 55.97937 | 37.41865 | 623 ft | 0 kts | 255° |
| 2026-05-06 13:14 | 55.97939 | 37.41878 | 623 ft | 2 kts | 259° |
| 2026-05-06 13:15 | 55.97941 | 37.41904 | 622 ft | 1 kts | 256° |
| 2026-05-06 13:15 | 55.97944 | 37.41921 | 622 ft | 2 kts | 248° |
| 2026-05-06 13:15 | 55.97951 | 37.41944 | 622 ft | 2 kts | 229° |
| 2026-05-06 13:15 | 55.97961 | 37.41963 | 621 ft | 2 kts | 214° |
| 2026-05-06 13:16 | 55.97974 | 37.41976 | 621 ft | 2 kts | 198° |
| 2026-05-06 13:16 | 55.97989 | 37.41982 | 621 ft | 2 kts | 182° |
| 2026-05-06 13:16 | 55.98003 | 37.41981 | 621 ft | 1 kts | 167° |
| 2026-05-06 13:16 | 55.98009 | 37.41978 | 621 ft | 1 kts | 163° |
| 2026-05-06 13:21 | 55.98006 | 37.41980 | 621 ft | 1 kts | 163° |
| 2026-05-06 13:22 | 55.97992 | 37.41988 | 621 ft | 3 kts | 161° |
| 2026-05-06 13:22 | 55.97956 | 37.42007 | 620 ft | 7 kts | 163° |
| 2026-05-06 13:22 | 55.97900 | 37.42034 | 620 ft | 9 kts | 167° |
| 2026-05-06 13:22 | 55.97825 | 37.42068 | 619 ft | 12 kts | 165° |
| 2026-05-06 13:23 | 55.97733 | 37.42109 | 618 ft | 14 kts | 165° |
| 2026-05-06 13:23 | 55.97687 | 37.42241 | 617 ft | 14 kts | 75° |
| 2026-05-06 13:23 | 55.97716 | 37.42436 | 615 ft | 18 kts | 75° |
| 2026-05-06 13:23 | 55.97751 | 37.42676 | 614 ft | 21 kts | 75° |
| 2026-05-06 13:24 | 55.97792 | 37.42954 | 613 ft | 24 kts | 74° |
| 2026-05-06 13:24 | 55.97837 | 37.43250 | 616 ft | 16 kts | 74° |
| 2026-05-06 13:24 | 55.97864 | 37.43425 | 618 ft | 14 kts | 74° |
| 2026-05-06 13:24 | 55.97890 | 37.43595 | 618 ft | 13 kts | 74° |
| 2026-05-06 13:25 | 55.97914 | 37.43743 | 622 ft | 10 kts | 74° |
| 2026-05-06 13:25 | 55.97933 | 37.43866 | 622 ft | 10 kts | 74° |
| 2026-05-06 13:25 | 55.97942 | 37.43983 | 622 ft | 8 kts | 102° |
| 2026-05-06 13:25 | 55.97900 | 37.44039 | 622 ft | 8 kts | 163° |
| 2026-05-06 13:26 | 55.97899 | 37.44040 | 622 ft | 0 kts | 163° |
| 2026-05-06 13:27 | 55.97868 | 37.44055 | 621 ft | 12 kts | 164° |
| 2026-05-06 13:28 | 55.97779 | 37.44017 | 619 ft | 13 kts | 238° |
| 2026-05-06 13:28 | 55.97755 | 37.43850 | 619 ft | 14 kts | 255° |
| 2026-05-06 13:28 | 55.97684 | 37.43370 | 615 ft | 84 kts | 256° |
| 2026-05-06 13:28 | 55.97455 | 37.41766 | 627 ft | 174 kts | 259° |
| 2026-05-06 13:29 | 55.97116 | 37.39624 | 1596 ft | 186 kts | 256° |
| 2026-05-06 13:29 | 55.96772 | 37.37506 | 2835 ft | 191 kts | 258° |
| 2026-05-06 13:29 | 55.96417 | 37.35252 | 3614 ft | 191 kts | 257° |
| 2026-05-06 13:29 | 55.96046 | 37.32867 | 3972 ft | 213 kts | 256° |
| 2026-05-06 13:30 | 55.95632 | 37.30221 | 4565 ft | 232 kts | 256° |
| 2026-05-06 13:30 | 55.95189 | 37.27385 | 5261 ft | 247 kts | 256° |
| 2026-05-06 13:30 | 55.94724 | 37.24417 | 6097 ft | 255 kts | 255° |
| 2026-05-06 13:30 | 55.94250 | 37.21405 | 7158 ft | 255 kts | 256° |
| 2026-05-06 13:31 | 55.93780 | 37.18409 | 8170 ft | 256 kts | 256° |
| 2026-05-06 13:31 | 55.93300 | 37.15361 | 9131 ft | 258 kts | 256° |
| 2026-05-06 13:31 | 55.92824 | 37.12339 | 9981 ft | 263 kts | 256° |
| 2026-05-06 13:31 | 55.92323 | 37.09164 | 9956 ft | 266 kts | 256° |
| 2026-05-06 13:32 | 55.91824 | 37.06010 | 10005 ft | 262 kts | 256° |
| 2026-05-06 13:32 | 55.91546 | 37.02851 | 9988 ft | 261 kts | 274° |
| 2026-05-06 13:32 | 55.92097 | 36.99823 | 10029 ft | 263 kts | 298° |
| 2026-05-06 13:32 | 55.93390 | 36.97516 | 9995 ft | 270 kts | 322° |
| 2026-05-06 13:33 | 55.94969 | 36.95706 | 9996 ft | 270 kts | 321° |
| 2026-05-06 13:33 | 55.96511 | 36.93821 | 10036 ft | 270 kts | 320° |
| 2026-05-06 13:33 | 55.98047 | 36.91918 | 10003 ft | 270 kts | 320° |
| 2026-05-06 13:33 | 55.99652 | 36.90112 | 9995 ft | 275 kts | 331° |
| 2026-05-06 13:34 | 56.01522 | 36.88980 | 10483 ft | 293 kts | 336° |
| 2026-05-06 13:34 | 56.03478 | 36.87808 | 11217 ft | 304 kts | 336° |
| 2026-05-06 13:34 | 56.05488 | 36.86609 | 11986 ft | 313 kts | 336° |
| 2026-05-06 13:34 | 56.07560 | 36.85365 | 12796 ft | 313 kts | 336° |
| 2026-05-06 13:35 | 56.09437 | 36.83498 | 12951 ft | 317 kts | 315° |
| 2026-05-06 13:35 | 56.11028 | 36.80731 | 13824 ft | 319 kts | 313° |
| 2026-05-06 13:35 | 56.12601 | 36.78091 | 14933 ft | 315 kts | 313° |
| 2026-05-06 13:35 | 56.14218 | 36.75382 | 15731 ft | 318 kts | 313° |
| 2026-05-06 13:36 | 56.15725 | 36.72856 | 15892 ft | 326 kts | 313° |
| 2026-05-06 13:36 | 56.15797 | 36.72736 | 15887 ft | 326 kts | 313° |
| 2026-05-06 13:36 | 56.16222 | 36.72024 | 15859 ft | 325 kts | 313° |
| 2026-05-06 13:36 | 56.17182 | 36.70419 | 15848 ft | 321 kts | 313° |
| 2026-05-06 13:37 | 56.18810 | 36.67689 | 15897 ft | 320 kts | 313° |
| 2026-05-06 13:37 | 56.20437 | 36.64956 | 15897 ft | 322 kts | 313° |
| 2026-05-06 13:37 | 56.22063 | 36.62224 | 15901 ft | 322 kts | 313° |
| 2026-05-06 13:37 | 56.23765 | 36.59351 | 16124 ft | 345 kts | 313° |
| 2026-05-06 13:38 | 56.25558 | 36.56322 | 16404 ft | 364 kts | 313° |
| 2026-05-06 13:38 | 56.27403 | 36.53207 | 16898 ft | 375 kts | 313° |
| 2026-05-06 13:38 | 56.29318 | 36.49968 | 17703 ft | 377 kts | 314° |
| 2026-05-06 13:38 | 56.31215 | 36.46755 | 18400 ft | 381 kts | 313° |
| 2026-05-06 13:39 | 56.33133 | 36.43501 | 19115 ft | 385 kts | 313° |
| 2026-05-06 13:39 | 56.35088 | 36.40176 | 19807 ft | 388 kts | 313° |
| 2026-05-06 13:39 | 56.36872 | 36.36604 | 20424 ft | 387 kts | 303° |
| 2026-05-06 13:39 | 56.38432 | 36.32600 | 21010 ft | 392 kts | 302° |
| 2026-05-06 13:40 | 56.39983 | 36.28636 | 21674 ft | 394 kts | 302° |
| 2026-05-06 13:40 | 56.41575 | 36.24568 | 22334 ft | 396 kts | 302° |
| 2026-05-06 13:40 | 56.43158 | 36.20517 | 22897 ft | 400 kts | 302° |
| 2026-05-06 13:40 | 56.44760 | 36.16418 | 23507 ft | 403 kts | 302° |
| 2026-05-06 13:41 | 56.46370 | 36.12281 | 24083 ft | 406 kts | 302° |
| 2026-05-06 13:41 | 56.47980 | 36.08145 | 24647 ft | 409 kts | 302° |
| 2026-05-06 13:41 | 56.49625 | 36.03911 | 25226 ft | 412 kts | 302° |
| 2026-05-06 13:41 | 56.51270 | 35.99666 | 25740 ft | 416 kts | 302° |
| 2026-05-06 13:42 | 56.52915 | 35.95419 | 26320 ft | 418 kts | 302° |
| 2026-05-06 13:42 | 56.54584 | 35.91096 | 26882 ft | 420 kts | 303° |
| 2026-05-06 13:42 | 56.56269 | 35.86729 | 27392 ft | 424 kts | 303° |
| 2026-05-06 13:42 | 56.57977 | 35.82296 | 27945 ft | 426 kts | 302° |
| 2026-05-06 13:43 | 56.59671 | 35.77889 | 28399 ft | 430 kts | 303° |
| 2026-05-06 13:43 | 56.61373 | 35.73450 | 29005 ft | 431 kts | 303° |
| 2026-05-06 13:43 | 56.63059 | 35.69051 | 29690 ft | 429 kts | 303° |
| 2026-05-06 13:43 | 56.64755 | 35.64613 | 30434 ft | 427 kts | 303° |
| 2026-05-06 13:44 | 56.66438 | 35.60202 | 31224 ft | 423 kts | 303° |
| 2026-05-06 13:44 | 56.68084 | 35.55882 | 31921 ft | 419 kts | 303° |
| 2026-05-06 13:44 | 56.69720 | 35.51580 | 32627 ft | 415 kts | 302° |
| 2026-05-06 13:44 | 56.71358 | 35.47257 | 33031 ft | 416 kts | 303° |
| 2026-05-06 13:45 | 56.73002 | 35.42923 | 33453 ft | 417 kts | 302° |
| 2026-05-06 13:45 | 56.76247 | 35.34329 | 34613 ft | 411 kts | 302° |
| 2026-05-06 13:45 | 56.77850 | 35.30077 | 35087 ft | 410 kts | 302° |
| 2026-05-06 13:46 | 56.79463 | 35.25788 | 35442 ft | 409 kts | 302° |
| 2026-05-06 13:46 | 56.81046 | 35.21573 | 35747 ft | 409 kts | 302° |
| 2026-05-06 13:46 | 56.82652 | 35.17293 | 35949 ft | 405 kts | 301° |
| 2026-05-06 13:46 | 56.84233 | 35.13062 | 35877 ft | 405 kts | 301° |
| 2026-05-06 13:47 | 56.87374 | 35.04644 | 35963 ft | 407 kts | 301° |
| 2026-05-06 13:47 | 56.90624 | 34.96167 | 35921 ft | 406 kts | 306° |
| 2026-05-06 13:48 | 56.94968 | 34.89572 | 35930 ft | 417 kts | 325° |
| 2026-05-06 13:48 | 56.99913 | 34.84030 | 35927 ft | 416 kts | 322° |
| 2026-05-06 13:49 | 57.04735 | 34.78303 | 35924 ft | 411 kts | 322° |
| 2026-05-06 13:49 | 57.07064 | 34.75514 | 35914 ft | 396 kts | 322° |
| 2026-05-06 13:49 | 57.09328 | 34.72794 | 35913 ft | 383 kts | 321° |
| 2026-05-06 13:50 | 57.13769 | 34.67431 | 35945 ft | 387 kts | 321° |
| 2026-05-06 13:50 | 57.18248 | 34.62016 | 35937 ft | 390 kts | 321° |
| 2026-05-06 13:51 | 57.22761 | 34.56541 | 35934 ft | 389 kts | 321° |
| 2026-05-06 13:51 | 57.27280 | 34.51043 | 35936 ft | 390 kts | 321° |
| 2026-05-06 13:52 | 57.31763 | 34.45574 | 35932 ft | 388 kts | 321° |
| 2026-05-06 13:52 | 57.36258 | 34.40073 | 35938 ft | 388 kts | 321° |
| 2026-05-06 13:53 | 57.40750 | 34.34561 | 35936 ft | 388 kts | 320° |
| 2026-05-06 13:53 | 57.45203 | 34.29080 | 35944 ft | 386 kts | 320° |
| 2026-05-06 13:54 | 57.49678 | 34.23554 | 35944 ft | 387 kts | 320° |
| 2026-05-06 13:54 | 57.54114 | 34.18060 | 35944 ft | 386 kts | 320° |
| 2026-05-06 13:55 | 57.58601 | 34.12485 | 35948 ft | 387 kts | 319° |
| 2026-05-06 13:55 | 57.63052 | 34.06940 | 35943 ft | 387 kts | 319° |
| 2026-05-06 13:56 | 57.67491 | 34.01392 | 35942 ft | 386 kts | 319° |
| 2026-05-06 13:56 | 57.71917 | 33.95845 | 35943 ft | 385 kts | 319° |
| 2026-05-06 13:57 | 57.76361 | 33.90257 | 35944 ft | 386 kts | 319° |
| 2026-05-06 13:57 | 57.80798 | 33.84665 | 35936 ft | 387 kts | 319° |
| 2026-05-06 13:58 | 57.85228 | 33.79062 | 35937 ft | 386 kts | 319° |
| 2026-05-06 13:58 | 57.89490 | 33.73104 | 35940 ft | 382 kts | 314° |
| 2026-05-06 13:59 | 57.93623 | 33.66822 | 35942 ft | 383 kts | 314° |
| 2026-05-06 13:59 | 57.97738 | 33.60563 | 35794 ft | 386 kts | 314° |
| 2026-05-06 14:00 | 57.99825 | 33.57386 | 35562 ft | 382 kts | 314° |
| 2026-05-06 14:00 | 58.01872 | 33.54260 | 35367 ft | 385 kts | 314° |
| 2026-05-06 14:00 | 58.03947 | 33.51095 | 35168 ft | 377 kts | 314° |
| 2026-05-06 14:00 | 58.05946 | 33.48038 | 34926 ft | 368 kts | 314° |
| 2026-05-06 14:01 | 58.07909 | 33.45032 | 34621 ft | 361 kts | 314° |
| 2026-05-06 14:01 | 58.09843 | 33.42061 | 34331 ft | 360 kts | 314° |
| 2026-05-06 14:01 | 58.11775 | 33.39088 | 34048 ft | 361 kts | 314° |
| 2026-05-06 14:01 | 58.13723 | 33.36087 | 33769 ft | 368 kts | 314° |
| 2026-05-06 14:02 | 58.15753 | 33.32945 | 33531 ft | 389 kts | 313° |
| 2026-05-06 14:02 | 58.17911 | 33.29612 | 33289 ft | 408 kts | 313° |
| 2026-05-06 14:02 | 58.20120 | 33.26194 | 33083 ft | 423 kts | 314° |
| 2026-05-06 14:02 | 58.22396 | 33.22683 | 32898 ft | 421 kts | 314° |
| 2026-05-06 14:03 | 58.24649 | 33.19193 | 32619 ft | 415 kts | 313° |
| 2026-05-06 14:03 | 58.26856 | 33.15760 | 32308 ft | 412 kts | 313° |
| 2026-05-06 14:03 | 58.29077 | 33.12300 | 31507 ft | 418 kts | 313° |
| 2026-05-06 14:03 | 58.31326 | 33.08796 | 30875 ft | 416 kts | 313° |
| 2026-05-06 14:04 | 58.33542 | 33.05338 | 30355 ft | 412 kts | 313° |
| 2026-05-06 14:04 | 58.35729 | 33.01915 | 29862 ft | 408 kts | 313° |
| 2026-05-06 14:04 | 58.37876 | 32.98549 | 29380 ft | 403 kts | 313° |
| 2026-05-06 14:04 | 58.40011 | 32.95197 | 28869 ft | 399 kts | 313° |
| 2026-05-06 14:05 | 58.42128 | 32.91869 | 28333 ft | 395 kts | 313° |
| 2026-05-06 14:05 | 58.44228 | 32.88560 | 27750 ft | 392 kts | 313° |
| 2026-05-06 14:05 | 58.46323 | 32.85260 | 27208 ft | 388 kts | 313° |
| 2026-05-06 14:05 | 58.48382 | 32.82007 | 26705 ft | 383 kts | 313° |
| 2026-05-06 14:06 | 58.50409 | 32.78799 | 26258 ft | 377 kts | 313° |
| 2026-05-06 14:06 | 58.52408 | 32.75631 | 25816 ft | 371 kts | 313° |
| 2026-05-06 14:06 | 58.54375 | 32.72511 | 25406 ft | 365 kts | 312° |
| 2026-05-06 14:06 | 58.56299 | 32.69456 | 24979 ft | 359 kts | 312° |
| 2026-05-06 14:07 | 58.58188 | 32.66444 | 24541 ft | 354 kts | 312° |
| 2026-05-06 14:07 | 58.60063 | 32.63457 | 24094 ft | 349 kts | 312° |
| 2026-05-06 14:07 | 58.61901 | 32.60519 | 23638 ft | 345 kts | 311° |
| 2026-05-06 14:07 | 58.63733 | 32.57591 | 23189 ft | 344 kts | 311° |
| 2026-05-06 14:08 | 58.65559 | 32.54666 | 22731 ft | 342 kts | 311° |
| 2026-05-06 14:08 | 58.67365 | 32.51769 | 22266 ft | 339 kts | 311° |
| 2026-05-06 14:08 | 58.69165 | 32.48880 | 21821 ft | 338 kts | 311° |
| 2026-05-06 14:08 | 58.70952 | 32.46008 | 21389 ft | 334 kts | 311° |
| 2026-05-06 14:09 | 58.72716 | 32.43165 | 20947 ft | 334 kts | 311° |
| 2026-05-06 14:09 | 58.74490 | 32.40306 | 20513 ft | 331 kts | 311° |
| 2026-05-06 14:09 | 58.76226 | 32.37504 | 20087 ft | 327 kts | 312° |
| 2026-05-06 14:09 | 58.77965 | 32.34692 | 19671 ft | 328 kts | 311° |
| 2026-05-06 14:10 | 58.79690 | 32.31898 | 19273 ft | 326 kts | 311° |
| 2026-05-06 14:10 | 58.81426 | 32.29088 | 18869 ft | 323 kts | 311° |
| 2026-05-06 14:10 | 58.83125 | 32.26325 | 18458 ft | 323 kts | 311° |
| 2026-05-06 14:10 | 58.84842 | 32.23537 | 18039 ft | 321 kts | 311° |
| 2026-05-06 14:11 | 58.86525 | 32.20798 | 17633 ft | 317 kts | 311° |
| 2026-05-06 14:11 | 58.88201 | 32.18067 | 17217 ft | 317 kts | 311° |
| 2026-05-06 14:11 | 58.89889 | 32.15311 | 16793 ft | 315 kts | 311° |
| 2026-05-06 14:11 | 58.91541 | 32.12613 | 16377 ft | 312 kts | 312° |
| 2026-05-06 14:12 | 58.93171 | 32.09946 | 15960 ft | 311 kts | 312° |
| 2026-05-06 14:12 | 58.94833 | 32.07224 | 15535 ft | 309 kts | 312° |
| 2026-05-06 14:12 | 58.96450 | 32.04574 | 15113 ft | 307 kts | 312° |
| 2026-05-06 14:12 | 58.98057 | 32.01936 | 14687 ft | 305 kts | 312° |
| 2026-05-06 14:13 | 58.99669 | 31.99285 | 14259 ft | 303 kts | 312° |
| 2026-05-06 14:13 | 59.01266 | 31.96654 | 13825 ft | 301 kts | 312° |
| 2026-05-06 14:13 | 59.02842 | 31.94051 | 13397 ft | 300 kts | 313° |
| 2026-05-06 14:13 | 59.04439 | 31.91417 | 12952 ft | 300 kts | 313° |
| 2026-05-06 14:14 | 59.06004 | 31.88828 | 12531 ft | 298 kts | 313° |
| 2026-05-06 14:14 | 59.07563 | 31.86249 | 12117 ft | 296 kts | 314° |
| 2026-05-06 14:14 | 59.09123 | 31.83666 | 11714 ft | 296 kts | 314° |
| 2026-05-06 14:14 | 59.10681 | 31.81054 | 11316 ft | 294 kts | 312° |
| 2026-05-06 14:15 | 59.12142 | 31.78306 | 10951 ft | 290 kts | 311° |
| 2026-05-06 14:15 | 59.13574 | 31.75604 | 10664 ft | 285 kts | 311° |
| 2026-05-06 14:15 | 59.14946 | 31.73013 | 10612 ft | 272 kts | 311° |
| 2026-05-06 14:15 | 59.16286 | 31.70477 | 10528 ft | 262 kts | 311° |
| 2026-05-06 14:16 | 59.17567 | 31.68047 | 10436 ft | 255 kts | 311° |
| 2026-05-06 14:16 | 59.18825 | 31.65654 | 10354 ft | 254 kts | 311° |
| 2026-05-06 14:16 | 59.20085 | 31.63259 | 10275 ft | 254 kts | 311° |
| 2026-05-06 14:16 | 59.21344 | 31.60860 | 10193 ft | 255 kts | 311° |
| 2026-05-06 14:17 | 59.22603 | 31.58462 | 10108 ft | 254 kts | 311° |
| 2026-05-06 14:17 | 59.23862 | 31.56056 | 10024 ft | 253 kts | 311° |
| 2026-05-06 14:17 | 59.25123 | 31.53649 | 9930 ft | 253 kts | 312° |
| 2026-05-06 14:17 | 59.26388 | 31.51230 | 9770 ft | 260 kts | 312° |
| 2026-05-06 14:18 | 59.27700 | 31.48715 | 9509 ft | 265 kts | 313° |
| 2026-05-06 14:18 | 59.29016 | 31.46194 | 9241 ft | 263 kts | 313° |
| 2026-05-06 14:18 | 59.30302 | 31.43723 | 8988 ft | 263 kts | 313° |
| 2026-05-06 14:18 | 59.31605 | 31.41221 | 8734 ft | 263 kts | 313° |
| 2026-05-06 14:19 | 59.32912 | 31.38706 | 8486 ft | 264 kts | 313° |
| 2026-05-06 14:19 | 59.34222 | 31.36186 | 8244 ft | 263 kts | 314° |
| 2026-05-06 14:19 | 59.35526 | 31.33666 | 8010 ft | 264 kts | 313° |
| 2026-05-06 14:19 | 59.36817 | 31.31175 | 7776 ft | 262 kts | 314° |
| 2026-05-06 14:20 | 59.38110 | 31.28677 | 7542 ft | 263 kts | 314° |
| 2026-05-06 14:20 | 59.39400 | 31.26179 | 7305 ft | 261 kts | 314° |
| 2026-05-06 14:20 | 59.40700 | 31.23662 | 7069 ft | 261 kts | 314° |
| 2026-05-06 14:20 | 59.41991 | 31.21158 | 6833 ft | 262 kts | 315° |
| 2026-05-06 14:21 | 59.43269 | 31.18676 | 6596 ft | 262 kts | 315° |
| 2026-05-06 14:21 | 59.44561 | 31.16166 | 6353 ft | 262 kts | 315° |
| 2026-05-06 14:21 | 59.45850 | 31.13660 | 6115 ft | 261 kts | 315° |
| 2026-05-06 14:21 | 59.47143 | 31.11142 | 5864 ft | 260 kts | 315° |
| 2026-05-06 14:22 | 59.48419 | 31.08655 | 5605 ft | 259 kts | 315° |
| 2026-05-06 14:22 | 59.49681 | 31.06190 | 5349 ft | 258 kts | 315° |
| 2026-05-06 14:22 | 59.50959 | 31.03694 | 5082 ft | 257 kts | 315° |
| 2026-05-06 14:22 | 59.52177 | 31.01198 | 4861 ft | 255 kts | 311° |
| 2026-05-06 14:23 | 59.53310 | 30.98573 | 4708 ft | 250 kts | 311° |
| 2026-05-06 14:23 | 59.54420 | 30.96032 | 4699 ft | 240 kts | 311° |
| 2026-05-06 14:23 | 59.55484 | 30.93598 | 4684 ft | 231 kts | 311° |
| 2026-05-06 14:23 | 59.56515 | 30.91235 | 4667 ft | 223 kts | 311° |
| 2026-05-06 14:24 | 59.57511 | 30.88954 | 4649 ft | 216 kts | 311° |
| 2026-05-06 14:24 | 59.58473 | 30.86746 | 4541 ft | 213 kts | 311° |
| 2026-05-06 14:24 | 59.59445 | 30.84516 | 4408 ft | 212 kts | 311° |
| 2026-05-06 14:24 | 59.60399 | 30.82323 | 4293 ft | 210 kts | 311° |
| 2026-05-06 14:25 | 59.61330 | 30.80180 | 4280 ft | 203 kts | 311° |
| 2026-05-06 14:25 | 59.62227 | 30.78116 | 4246 ft | 194 kts | 311° |
| 2026-05-06 14:25 | 59.63088 | 30.76132 | 4042 ft | 191 kts | 311° |
| 2026-05-06 14:25 | 59.63954 | 30.74132 | 3774 ft | 191 kts | 311° |
| 2026-05-06 14:26 | 59.64816 | 30.72144 | 3533 ft | 190 kts | 311° |
| 2026-05-06 14:26 | 59.65664 | 30.70185 | 3309 ft | 188 kts | 310° |
| 2026-05-06 14:26 | 59.66514 | 30.68231 | 3063 ft | 187 kts | 313° |
| 2026-05-06 14:26 | 59.67542 | 30.66649 | 2810 ft | 186 kts | 326° |
| 2026-05-06 14:27 | 59.68597 | 30.65198 | 2601 ft | 184 kts | 324° |
| 2026-05-06 14:27 | 59.69595 | 30.63813 | 2596 ft | 169 kts | 324° |
| 2026-05-06 14:27 | 59.70519 | 30.62530 | 2528 ft | 156 kts | 324° |
| 2026-05-06 14:27 | 59.71412 | 30.61286 | 2166 ft | 158 kts | 324° |
| 2026-05-06 14:28 | 59.72314 | 30.60029 | 1968 ft | 157 kts | 324° |
| 2026-05-06 14:28 | 59.73224 | 30.58757 | 2017 ft | 162 kts | 324° |
| 2026-05-06 14:28 | 59.74153 | 30.57459 | 1988 ft | 163 kts | 324° |
| 2026-05-06 14:28 | 59.74898 | 30.55889 | 1938 ft | 153 kts | 295° |
| 2026-05-06 14:29 | 59.75182 | 30.53944 | 1997 ft | 142 kts | 286° |
| 2026-05-06 14:29 | 59.75438 | 30.52093 | 1961 ft | 134 kts | 290° |
| 2026-05-06 14:29 | 59.75714 | 30.50347 | 1980 ft | 131 kts | 288° |
| 2026-05-06 14:29 | 59.75979 | 30.48609 | 1990 ft | 133 kts | 289° |
| 2026-05-06 14:30 | 59.76242 | 30.46868 | 1991 ft | 132 kts | 289° |
| 2026-05-06 14:30 | 59.76506 | 30.45121 | 1845 ft | 131 kts | 289° |
| 2026-05-06 14:30 | 59.76770 | 30.43373 | 1679 ft | 132 kts | 289° |
| 2026-05-06 14:30 | 59.77033 | 30.41626 | 1509 ft | 132 kts | 288° |
| 2026-05-06 14:31 | 59.77292 | 30.39899 | 1335 ft | 132 kts | 289° |
| 2026-05-06 14:31 | 59.77554 | 30.38153 | 1162 ft | 131 kts | 288° |
| 2026-05-06 14:31 | 59.77806 | 30.36439 | 977 ft | 131 kts | 288° |
| 2026-05-06 14:31 | 59.78073 | 30.34677 | 801 ft | 131 kts | 289° |
| 2026-05-06 14:32 | 59.78326 | 30.32964 | 627 ft | 130 kts | 287° |
| 2026-05-06 14:32 | 59.78589 | 30.31213 | 442 ft | 133 kts | 290° |
| 2026-05-06 14:32 | 59.78847 | 30.29492 | 267 ft | 130 kts | 288° |
| 2026-05-06 14:32 | 59.79121 | 30.27727 | 118 ft | 139 kts | 290° |
| 2026-05-06 14:33 | 59.79404 | 30.26076 | 92 ft | 102 kts | 281° |
| 2026-05-06 14:33 | 59.79502 | 30.25272 | 92 ft | 18 kts | 286° |
| 2026-05-06 14:33 | 59.79506 | 30.25245 | 92 ft | 0 kts | 286° |
| 2026-05-06 14:33 | 59.79523 | 30.25129 | 92 ft | 19 kts | 285° |
| 2026-05-06 14:34 | 59.79557 | 30.24837 | 91 ft | 23 kts | 284° |
| 2026-05-06 14:34 | 59.79603 | 30.24507 | 88 ft | 25 kts | 286° |
| 2026-05-06 14:34 | 59.79651 | 30.24162 | 89 ft | 26 kts | 285° |
| 2026-05-06 14:34 | 59.79704 | 30.23809 | 88 ft | 26 kts | 287° |
| 2026-05-06 14:35 | 59.79755 | 30.23456 | 87 ft | 26 kts | 287° |
| 2026-05-06 14:35 | 59.79830 | 30.23201 | 85 ft | 18 kts | 311° |
| 2026-05-06 14:35 | 59.79915 | 30.23036 | 85 ft | 15 kts | 323° |
| 2026-05-06 14:35 | 59.79976 | 30.23118 | 85 ft | 13 kts | 89° |
| 2026-05-06 14:36 | 59.79955 | 30.23292 | 85 ft | 13 kts | 107° |
| 2026-05-06 14:36 | 59.79927 | 30.23473 | 86 ft | 13 kts | 106° |
| 2026-05-06 14:36 | 59.79900 | 30.23656 | 88 ft | 13 kts | 106° |
| 2026-05-06 14:36 | 59.79873 | 30.23847 | 88 ft | 15 kts | 105° |
| 2026-05-06 14:37 | 59.79842 | 30.24054 | 88 ft | 16 kts | 106° |
| 2026-05-06 14:37 | 59.79809 | 30.24278 | 88 ft | 17 kts | 106° |
| 2026-05-06 14:37 | 59.79771 | 30.24511 | 88 ft | 17 kts | 107° |
| 2026-05-06 14:37 | 59.79735 | 30.24743 | 90 ft | 17 kts | 107° |
| 2026-05-06 14:38 | 59.79704 | 30.24950 | 94 ft | 14 kts | 106° |
| 2026-05-06 14:38 | 59.79677 | 30.25133 | 95 ft | 13 kts | 106° |
| 2026-05-06 14:38 | 59.79650 | 30.25315 | 95 ft | 14 kts | 105° |
| 2026-05-06 14:38 | 59.79622 | 30.25510 | 94 ft | 14 kts | 105° |
| 2026-05-06 14:39 | 59.79594 | 30.25712 | 93 ft | 15 kts | 105° |
| 2026-05-06 14:39 | 59.79564 | 30.25924 | 93 ft | 16 kts | 105° |
| 2026-05-06 14:39 | 59.79533 | 30.26125 | 92 ft | 10 kts | 107° |
| 2026-05-06 14:39 | 59.79527 | 30.26272 | 92 ft | 10 kts | 66° |
| 2026-05-06 14:40 | 59.79584 | 30.26332 | 92 ft | 9 kts | 18° |
| 2026-05-06 14:40 | 59.79647 | 30.26373 | 92 ft | 9 kts | 17° |
| 2026-05-06 14:40 | 59.79712 | 30.26411 | 92 ft | 9 kts | 16° |
| 2026-05-06 14:40 | 59.79765 | 30.26442 | 92 ft | 1 kts | 14° |
| 2026-05-06 14:41 | 59.79775 | 30.26447 | 92 ft | 1 kts | 15° |
| 2026-05-06 14:41 | 59.79789 | 30.26458 | 92 ft | 5 kts | 26° |
| 2026-05-06 14:41 | 59.79814 | 30.26531 | 92 ft | 7 kts | 81° |
| 2026-05-06 14:41 | 59.79802 | 30.26637 | 92 ft | 6 kts | 105° |
| 2026-05-06 14:42 | 59.79800 | 30.26657 | 92 ft | 0 kts | 105° |
| 2026-05-06 14:42 | 59.79799 | 30.26661 | 92 ft | 0 kts | 105° |